sensor_id;sensor_type;location;lat;lon;timestamp;P1;durP1;ratioP1;P2;durP2;ratioP2
38499;SDS011;24269;51.894;4.622;2022-12-05T00:01:33;41.17;;;15.70;;
38499;SDS011;24269;51.894;4.622;2022-12-05T00:04:08;43.25;;;16.98;;
38499;SDS011;24269;51.894;4.622;2022-12-05T00:06:37;41.72;;;15.52;;
38499;SDS011;24269;51.894;4.622;2022-12-05T00:09:04;44.42;;;16.42;;
38499;SDS011;24269;51.894;4.622;2022-12-05T00:11:33;40.03;;;16.40;;
38499;SDS011;24269;51.894;4.622;2022-12-05T00:14:01;41.78;;;15.80;;
38499;SDS011;24269;51.894;4.622;2022-12-05T00:16:28;39.83;;;15.75;;
38499;SDS011;24269;51.894;4.622;2022-12-05T00:18:57;43.65;;;16.08;;
38499;SDS011;24269;51.894;4.622;2022-12-05T00:21:26;37.78;;;15.75;;
38499;SDS011;24269;51.894;4.622;2022-12-05T00:23:54;41.08;;;15.80;;
38499;SDS011;24269;51.894;4.622;2022-12-05T00:26:21;36.65;;;15.15;;
38499;SDS011;24269;51.894;4.622;2022-12-05T00:28:47;43.05;;;16.38;;
38499;SDS011;24269;51.894;4.622;2022-12-05T00:31:14;42.13;;;15.55;;
38499;SDS011;24269;51.894;4.622;2022-12-05T00:33:44;36.60;;;14.93;;
38499;SDS011;24269;51.894;4.622;2022-12-05T00:36:11;37.72;;;14.38;;
38499;SDS011;24269;51.894;4.622;2022-12-05T00:38:39;39.47;;;16.25;;
38499;SDS011;24269;51.894;4.622;2022-12-05T00:41:07;42.75;;;17.35;;
38499;SDS011;24269;51.894;4.622;2022-12-05T00:43:35;38.20;;;14.90;;
38499;SDS011;24269;51.894;4.622;2022-12-05T00:46:01;39.67;;;16.67;;
38499;SDS011;24269;51.894;4.622;2022-12-05T00:48:28;43.67;;;16.83;;
38499;SDS011;24269;51.894;4.622;2022-12-05T00:51:01;40.22;;;15.93;;
38499;SDS011;24269;51.894;4.622;2022-12-05T00:53:47;40.38;;;15.13;;
38499;SDS011;24269;51.894;4.622;2022-12-05T00:56:19;37.60;;;15.13;;
38499;SDS011;24269;51.894;4.622;2022-12-05T00:58:47;40.60;;;15.77;;
38499;SDS011;24269;51.894;4.622;2022-12-05T01:01:22;38.13;;;13.93;;
38499;SDS011;24269;51.894;4.622;2022-12-05T01:03:54;38.38;;;14.68;;
38499;SDS011;24269;51.894;4.622;2022-12-05T01:06:22;37.50;;;14.38;;
38499;SDS011;24269;51.894;4.622;2022-12-05T01:08:49;37.38;;;14.93;;
38499;SDS011;24269;51.894;4.622;2022-12-05T01:11:16;35.70;;;14.43;;
38499;SDS011;24269;51.894;4.622;2022-12-05T01:13:43;36.13;;;15.25;;
38499;SDS011;24269;51.894;4.622;2022-12-05T01:16:12;37.33;;;14.38;;
38499;SDS011;24269;51.894;4.622;2022-12-05T01:18:43;43.13;;;15.60;;
38499;SDS011;24269;51.894;4.622;2022-12-05T01:21:09;35.55;;;14.00;;
38499;SDS011;24269;51.894;4.622;2022-12-05T01:23:35;38.47;;;14.45;;
38499;SDS011;24269;51.894;4.622;2022-12-05T01:26:00;36.25;;;15.30;;
38499;SDS011;24269;51.894;4.622;2022-12-05T01:28:34;39.00;;;15.38;;
38499;SDS011;24269;51.894;4.622;2022-12-05T01:31:04;36.15;;;14.38;;
38499;SDS011;24269;51.894;4.622;2022-12-05T01:33:32;35.25;;;14.40;;
38499;SDS011;24269;51.894;4.622;2022-12-05T01:35:58;36.17;;;14.07;;
38499;SDS011;24269;51.894;4.622;2022-12-05T01:38:24;35.97;;;14.65;;
38499;SDS011;24269;51.894;4.622;2022-12-05T01:40:57;33.20;;;13.27;;
38499;SDS011;24269;51.894;4.622;2022-12-05T01:43:27;36.22;;;14.25;;
38499;SDS011;24269;51.894;4.622;2022-12-05T01:45:53;34.72;;;14.10;;
38499;SDS011;24269;51.894;4.622;2022-12-05T01:48:20;38.95;;;14.90;;
38499;SDS011;24269;51.894;4.622;2022-12-05T01:50:58;33.63;;;12.98;;
38499;SDS011;24269;51.894;4.622;2022-12-05T01:53:25;31.75;;;13.20;;
38499;SDS011;24269;51.894;4.622;2022-12-05T01:55:52;36.55;;;15.32;;
38499;SDS011;24269;51.894;4.622;2022-12-05T01:58:19;36.03;;;13.77;;
38499;SDS011;24269;51.894;4.622;2022-12-05T02:00:45;37.40;;;14.95;;
38499;SDS011;24269;51.894;4.622;2022-12-05T02:03:14;33.72;;;14.20;;
38499;SDS011;24269;51.894;4.622;2022-12-05T02:05:42;36.15;;;14.13;;
38499;SDS011;24269;51.894;4.622;2022-12-05T02:08:09;35.05;;;13.95;;
38499;SDS011;24269;51.894;4.622;2022-12-05T02:10:39;33.92;;;13.35;;
38499;SDS011;24269;51.894;4.622;2022-12-05T02:15:44;37.33;;;13.57;;
38499;SDS011;24269;51.894;4.622;2022-12-05T02:24:02;33.88;;;13.48;;
38499;SDS011;24269;51.894;4.622;2022-12-05T02:26:48;34.83;;;13.43;;
38499;SDS011;24269;51.894;4.622;2022-12-05T02:35:15;34.05;;;13.45;;
38499;SDS011;24269;51.894;4.622;2022-12-05T02:46:22;36.92;;;13.90;;
38499;SDS011;24269;51.894;4.622;2022-12-05T02:48:50;35.72;;;14.38;;
38499;SDS011;24269;51.894;4.622;2022-12-05T02:51:21;29.77;;;13.57;;
38499;SDS011;24269;51.894;4.622;2022-12-05T02:53:51;24.40;;;10.82;;
38499;SDS011;24269;51.894;4.622;2022-12-05T02:56:21;28.65;;;13.80;;
38499;SDS011;24269;51.894;4.622;2022-12-05T02:58:50;30.10;;;13.45;;
38499;SDS011;24269;51.894;4.622;2022-12-05T03:01:22;37.80;;;14.57;;
38499;SDS011;24269;51.894;4.622;2022-12-05T03:03:51;34.97;;;12.90;;
38499;SDS011;24269;51.894;4.622;2022-12-05T03:06:21;33.22;;;13.80;;
38499;SDS011;24269;51.894;4.622;2022-12-05T03:11:48;32.10;;;13.68;;
38499;SDS011;24269;51.894;4.622;2022-12-05T03:14:21;30.70;;;13.90;;
38499;SDS011;24269;51.894;4.622;2022-12-05T03:16:50;32.60;;;13.32;;
38499;SDS011;24269;51.894;4.622;2022-12-05T03:19:35;34.70;;;13.07;;
38499;SDS011;24269;51.894;4.622;2022-12-05T03:22:11;33.13;;;13.25;;
38499;SDS011;24269;51.894;4.622;2022-12-05T03:25:00;33.17;;;13.77;;
38499;SDS011;24269;51.894;4.622;2022-12-05T03:27:33;36.30;;;14.13;;
38499;SDS011;24269;51.894;4.622;2022-12-05T03:30:18;34.83;;;14.20;;
38499;SDS011;24269;51.894;4.622;2022-12-05T03:35:35;30.05;;;13.02;;
38499;SDS011;24269;51.894;4.622;2022-12-05T03:38:14;29.88;;;12.55;;
38499;SDS011;24269;51.894;4.622;2022-12-05T03:40:53;29.38;;;12.70;;
38499;SDS011;24269;51.894;4.622;2022-12-05T03:46:10;35.25;;;13.00;;
38499;SDS011;24269;51.894;4.622;2022-12-05T03:51:24;31.60;;;13.05;;
38499;SDS011;24269;51.894;4.622;2022-12-05T03:54:03;28.88;;;11.73;;
38499;SDS011;24269;51.894;4.622;2022-12-05T03:56:40;33.47;;;13.55;;
38499;SDS011;24269;51.894;4.622;2022-12-05T04:02:22;33.63;;;12.57;;
38499;SDS011;24269;51.894;4.622;2022-12-05T04:07:27;30.63;;;12.10;;
38499;SDS011;24269;51.894;4.622;2022-12-05T04:09:56;32.10;;;13.00;;
38499;SDS011;24269;51.894;4.622;2022-12-05T04:12:27;32.55;;;12.90;;
38499;SDS011;24269;51.894;4.622;2022-12-05T04:14:58;28.83;;;11.65;;
38499;SDS011;24269;51.894;4.622;2022-12-05T04:20:17;32.90;;;13.52;;
38499;SDS011;24269;51.894;4.622;2022-12-05T04:23:06;30.48;;;12.57;;
38499;SDS011;24269;51.894;4.622;2022-12-05T04:26:34;31.88;;;12.90;;
38499;SDS011;24269;51.894;4.622;2022-12-05T04:29:01;34.42;;;12.77;;
38499;SDS011;24269;51.894;4.622;2022-12-05T04:31:33;32.78;;;13.05;;
38499;SDS011;24269;51.894;4.622;2022-12-05T04:34:06;29.77;;;12.50;;
38499;SDS011;24269;51.894;4.622;2022-12-05T04:36:35;28.45;;;12.52;;
38499;SDS011;24269;51.894;4.622;2022-12-05T04:39:46;30.23;;;13.07;;
38499;SDS011;24269;51.894;4.622;2022-12-05T04:42:02;34.83;;;13.40;;
38499;SDS011;24269;51.894;4.622;2022-12-05T04:44:32;29.42;;;12.15;;
38499;SDS011;24269;51.894;4.622;2022-12-05T04:47:06;32.63;;;13.38;;
38499;SDS011;24269;51.894;4.622;2022-12-05T04:49:34;28.50;;;12.98;;
38499;SDS011;24269;51.894;4.622;2022-12-05T04:52:03;32.50;;;13.02;;
38499;SDS011;24269;51.894;4.622;2022-12-05T04:57:23;32.30;;;13.23;;
38499;SDS011;24269;51.894;4.622;2022-12-05T04:59:55;29.42;;;12.75;;
38499;SDS011;24269;51.894;4.622;2022-12-05T05:02:23;29.98;;;12.82;;
38499;SDS011;24269;51.894;4.622;2022-12-05T05:05:03;35.78;;;12.43;;
38499;SDS011;24269;51.894;4.622;2022-12-05T05:07:41;32.50;;;13.37;;
38499;SDS011;24269;51.894;4.622;2022-12-05T05:10:12;31.80;;;12.65;;
38499;SDS011;24269;51.894;4.622;2022-12-05T05:12:40;28.58;;;13.05;;
38499;SDS011;24269;51.894;4.622;2022-12-05T05:15:06;29.73;;;13.35;;
38499;SDS011;24269;51.894;4.622;2022-12-05T05:17:32;32.50;;;12.23;;
38499;SDS011;24269;51.894;4.622;2022-12-05T05:19:58;29.83;;;12.55;;
38499;SDS011;24269;51.894;4.622;2022-12-05T05:22:45;32.25;;;13.13;;
38499;SDS011;24269;51.894;4.622;2022-12-05T05:25:12;31.05;;;12.10;;
38499;SDS011;24269;51.894;4.622;2022-12-05T05:27:38;34.40;;;12.20;;
38499;SDS011;24269;51.894;4.622;2022-12-05T05:30:03;26.85;;;12.05;;
38499;SDS011;24269;51.894;4.622;2022-12-05T05:32:31;34.88;;;13.15;;
38499;SDS011;24269;51.894;4.622;2022-12-05T05:34:57;30.35;;;11.63;;
38499;SDS011;24269;51.894;4.622;2022-12-05T05:37:22;32.22;;;12.75;;
38499;SDS011;24269;51.894;4.622;2022-12-05T05:39:48;31.70;;;12.73;;
38499;SDS011;24269;51.894;4.622;2022-12-05T05:42:13;34.08;;;12.43;;
38499;SDS011;24269;51.894;4.622;2022-12-05T05:44:39;28.70;;;11.73;;
38499;SDS011;24269;51.894;4.622;2022-12-05T05:47:05;27.55;;;11.80;;
38499;SDS011;24269;51.894;4.622;2022-12-05T05:49:30;32.92;;;11.98;;
38499;SDS011;24269;51.894;4.622;2022-12-05T05:51:56;32.33;;;12.30;;
38499;SDS011;24269;51.894;4.622;2022-12-05T05:54:21;31.10;;;12.07;;
38499;SDS011;24269;51.894;4.622;2022-12-05T05:56:47;28.15;;;11.40;;
38499;SDS011;24269;51.894;4.622;2022-12-05T05:59:12;30.30;;;11.43;;
38499;SDS011;24269;51.894;4.622;2022-12-05T06:01:38;31.90;;;12.18;;
38499;SDS011;24269;51.894;4.622;2022-12-05T06:04:04;26.98;;;11.45;;
38499;SDS011;24269;51.894;4.622;2022-12-05T06:06:29;32.50;;;11.75;;
38499;SDS011;24269;51.894;4.622;2022-12-05T06:08:55;30.95;;;12.65;;
38499;SDS011;24269;51.894;4.622;2022-12-05T06:11:25;31.52;;;11.95;;
38499;SDS011;24269;51.894;4.622;2022-12-05T06:13:52;32.67;;;12.80;;
38499;SDS011;24269;51.894;4.622;2022-12-05T06:16:19;29.27;;;12.77;;
38499;SDS011;24269;51.894;4.622;2022-12-05T06:18:45;30.48;;;12.45;;
38499;SDS011;24269;51.894;4.622;2022-12-05T06:21:11;30.25;;;11.55;;
38499;SDS011;24269;51.894;4.622;2022-12-05T06:23:37;27.67;;;11.85;;
38499;SDS011;24269;51.894;4.622;2022-12-05T06:26:03;34.25;;;12.95;;
38499;SDS011;24269;51.894;4.622;2022-12-05T06:28:30;30.42;;;12.30;;
38499;SDS011;24269;51.894;4.622;2022-12-05T06:30:56;34.42;;;12.63;;
38499;SDS011;24269;51.894;4.622;2022-12-05T06:33:22;32.50;;;12.10;;
38499;SDS011;24269;51.894;4.622;2022-12-05T06:35:47;29.65;;;12.75;;
38499;SDS011;24269;51.894;4.622;2022-12-05T06:38:13;31.48;;;12.43;;
38499;SDS011;24269;51.894;4.622;2022-12-05T06:40:42;30.63;;;12.63;;
38499;SDS011;24269;51.894;4.622;2022-12-05T06:43:09;29.75;;;12.15;;
38499;SDS011;24269;51.894;4.622;2022-12-05T06:45:38;30.42;;;12.13;;
38499;SDS011;24269;51.894;4.622;2022-12-05T06:48:05;30.67;;;12.63;;
38499;SDS011;24269;51.894;4.622;2022-12-05T06:50:31;30.58;;;13.23;;
38499;SDS011;24269;51.894;4.622;2022-12-05T06:52:57;32.65;;;13.27;;
38499;SDS011;24269;51.894;4.622;2022-12-05T06:55:22;32.97;;;12.93;;
38499;SDS011;24269;51.894;4.622;2022-12-05T06:57:48;27.98;;;12.38;;
38499;SDS011;24269;51.894;4.622;2022-12-05T07:00:13;30.48;;;13.27;;
38499;SDS011;24269;51.894;4.622;2022-12-05T07:02:58;29.63;;;13.00;;
38499;SDS011;24269;51.894;4.622;2022-12-05T07:05:24;31.85;;;12.90;;
38499;SDS011;24269;51.894;4.622;2022-12-05T07:07:49;33.13;;;13.23;;
38499;SDS011;24269;51.894;4.622;2022-12-05T07:10:15;30.17;;;11.93;;
38499;SDS011;24269;51.894;4.622;2022-12-05T07:12:41;30.90;;;12.23;;
38499;SDS011;24269;51.894;4.622;2022-12-05T07:15:07;29.83;;;13.13;;
38499;SDS011;24269;51.894;4.622;2022-12-05T07:17:36;29.80;;;12.00;;
38499;SDS011;24269;51.894;4.622;2022-12-05T07:20:03;35.47;;;13.70;;
38499;SDS011;24269;51.894;4.622;2022-12-05T07:22:30;50.50;;;17.23;;
38499;SDS011;24269;51.894;4.622;2022-12-05T07:24:56;37.47;;;13.48;;
38499;SDS011;24269;51.894;4.622;2022-12-05T07:27:21;34.67;;;13.55;;
38499;SDS011;24269;51.894;4.622;2022-12-05T07:29:47;32.95;;;12.55;;
38499;SDS011;24269;51.894;4.622;2022-12-05T07:32:12;34.10;;;12.52;;
38499;SDS011;24269;51.894;4.622;2022-12-05T07:34:38;37.25;;;12.90;;
38499;SDS011;24269;51.894;4.622;2022-12-05T07:37:04;30.42;;;13.25;;
38499;SDS011;24269;51.894;4.622;2022-12-05T07:39:29;33.30;;;12.18;;
38499;SDS011;24269;51.894;4.622;2022-12-05T07:41:55;37.97;;;13.35;;
38499;SDS011;24269;51.894;4.622;2022-12-05T07:44:20;36.83;;;13.15;;
38499;SDS011;24269;51.894;4.622;2022-12-05T07:46:46;35.63;;;13.90;;
38499;SDS011;24269;51.894;4.622;2022-12-05T07:49:12;29.48;;;12.35;;
38499;SDS011;24269;51.894;4.622;2022-12-05T07:51:39;34.97;;;13.77;;
38499;SDS011;24269;51.894;4.622;2022-12-05T07:54:05;37.55;;;13.75;;
38499;SDS011;24269;51.894;4.622;2022-12-05T07:56:31;34.08;;;13.55;;
38499;SDS011;24269;51.894;4.622;2022-12-05T07:58:56;34.15;;;13.57;;
38499;SDS011;24269;51.894;4.622;2022-12-05T08:01:23;31.08;;;12.35;;
38499;SDS011;24269;51.894;4.622;2022-12-05T08:03:51;33.67;;;13.30;;
38499;SDS011;24269;51.894;4.622;2022-12-05T08:06:19;42.38;;;14.63;;
38499;SDS011;24269;51.894;4.622;2022-12-05T08:08:48;32.13;;;13.15;;
38499;SDS011;24269;51.894;4.622;2022-12-05T08:11:18;32.25;;;11.88;;
38499;SDS011;24269;51.894;4.622;2022-12-05T08:13:46;27.98;;;12.48;;
38499;SDS011;24269;51.894;4.622;2022-12-05T08:16:13;32.40;;;12.27;;
38499;SDS011;24269;51.894;4.622;2022-12-05T08:18:41;34.95;;;11.65;;
38499;SDS011;24269;51.894;4.622;2022-12-05T08:21:08;27.95;;;11.18;;
38499;SDS011;24269;51.894;4.622;2022-12-05T08:23:36;32.05;;;12.30;;
38499;SDS011;24269;51.894;4.622;2022-12-05T08:26:07;34.15;;;12.73;;
38499;SDS011;24269;51.894;4.622;2022-12-05T08:28:34;25.42;;;10.98;;
38499;SDS011;24269;51.894;4.622;2022-12-05T08:31:13;30.42;;;11.05;;
38499;SDS011;24269;51.894;4.622;2022-12-05T08:33:41;28.25;;;11.65;;
38499;SDS011;24269;51.894;4.622;2022-12-05T08:36:09;28.35;;;11.80;;
38499;SDS011;24269;51.894;4.622;2022-12-05T08:38:36;26.48;;;11.82;;
38499;SDS011;24269;51.894;4.622;2022-12-05T08:41:03;29.00;;;11.70;;
38499;SDS011;24269;51.894;4.622;2022-12-05T08:43:31;30.20;;;11.80;;
38499;SDS011;24269;51.894;4.622;2022-12-05T08:45:57;26.65;;;11.23;;
38499;SDS011;24269;51.894;4.622;2022-12-05T08:48:24;31.48;;;12.82;;
38499;SDS011;24269;51.894;4.622;2022-12-05T08:50:50;29.90;;;11.73;;
38499;SDS011;24269;51.894;4.622;2022-12-05T08:53:16;22.67;;;10.60;;
38499;SDS011;24269;51.894;4.622;2022-12-05T08:55:42;26.63;;;10.38;;
38499;SDS011;24269;51.894;4.622;2022-12-05T08:58:09;27.05;;;10.60;;
38499;SDS011;24269;51.894;4.622;2022-12-05T09:00:35;22.13;;;10.30;;
38499;SDS011;24269;51.894;4.622;2022-12-05T09:03:00;25.98;;;10.90;;
38499;SDS011;24269;51.894;4.622;2022-12-05T09:05:26;30.08;;;11.57;;
38499;SDS011;24269;51.894;4.622;2022-12-05T09:07:52;27.33;;;11.90;;
38499;SDS011;24269;51.894;4.622;2022-12-05T09:10:18;25.63;;;11.52;;
38499;SDS011;24269;51.894;4.622;2022-12-05T09:12:44;21.80;;;9.48;;
38499;SDS011;24269;51.894;4.622;2022-12-05T09:15:10;26.08;;;10.85;;
38499;SDS011;24269;51.894;4.622;2022-12-05T09:17:36;22.10;;;10.10;;
38499;SDS011;24269;51.894;4.622;2022-12-05T09:20:03;22.52;;;9.95;;
38499;SDS011;24269;51.894;4.622;2022-12-05T09:22:30;22.67;;;10.95;;
38499;SDS011;24269;51.894;4.622;2022-12-05T09:24:55;23.15;;;10.90;;
38499;SDS011;24269;51.894;4.622;2022-12-05T09:27:21;23.48;;;9.35;;
38499;SDS011;24269;51.894;4.622;2022-12-05T09:29:47;20.70;;;9.68;;
38499;SDS011;24269;51.894;4.622;2022-12-05T09:32:12;25.13;;;9.60;;
38499;SDS011;24269;51.894;4.622;2022-12-05T09:34:38;22.00;;;10.25;;
38499;SDS011;24269;51.894;4.622;2022-12-05T09:37:04;19.73;;;8.43;;
38499;SDS011;24269;51.894;4.622;2022-12-05T09:39:30;19.90;;;9.13;;
38499;SDS011;24269;51.894;4.622;2022-12-05T09:47:47;20.67;;;9.40;;
38499;SDS011;24269;51.894;4.622;2022-12-05T09:50:33;20.67;;;8.65;;
38499;SDS011;24269;51.894;4.622;2022-12-05T09:53:27;20.60;;;9.43;;
38499;SDS011;24269;51.894;4.622;2022-12-05T09:58:45;20.35;;;8.65;;
38499;SDS011;24269;51.894;4.622;2022-12-05T10:06:33;18.02;;;8.85;;
38499;SDS011;24269;51.894;4.622;2022-12-05T10:09:20;23.33;;;9.82;;
38499;SDS011;24269;51.894;4.622;2022-12-05T10:12:02;20.00;;;8.73;;
38499;SDS011;24269;51.894;4.622;2022-12-05T10:19:51;19.80;;;8.32;;
38499;SDS011;24269;51.894;4.622;2022-12-05T10:22:31;20.35;;;9.30;;
38499;SDS011;24269;51.894;4.622;2022-12-05T10:24:59;20.17;;;8.43;;
38499;SDS011;24269;51.894;4.622;2022-12-05T10:29:57;16.27;;;8.35;;
38499;SDS011;24269;51.894;4.622;2022-12-05T10:32:30;12.48;;;6.82;;
38499;SDS011;24269;51.894;4.622;2022-12-05T10:40:44;14.25;;;6.50;;
38499;SDS011;24269;51.894;4.622;2022-12-05T10:43:14;14.88;;;7.00;;
38499;SDS011;24269;51.894;4.622;2022-12-05T10:45:46;14.70;;;7.07;;
38499;SDS011;24269;51.894;4.622;2022-12-05T10:48:13;14.52;;;6.72;;
38499;SDS011;24269;51.894;4.622;2022-12-05T10:50:41;13.70;;;6.57;;
38499;SDS011;24269;51.894;4.622;2022-12-05T10:53:11;13.30;;;6.57;;
38499;SDS011;24269;51.894;4.622;2022-12-05T10:55:45;13.32;;;6.57;;
38499;SDS011;24269;51.894;4.622;2022-12-05T10:58:15;14.13;;;6.82;;
38499;SDS011;24269;51.894;4.622;2022-12-05T11:03:35;13.02;;;6.68;;
38499;SDS011;24269;51.894;4.622;2022-12-05T11:08:51;13.38;;;6.68;;
38499;SDS011;24269;51.894;4.622;2022-12-05T11:11:25;11.82;;;6.20;;
38499;SDS011;24269;51.894;4.622;2022-12-05T11:14:00;12.50;;;5.45;;
38499;SDS011;24269;51.894;4.622;2022-12-05T11:16:28;13.90;;;6.28;;
38499;SDS011;24269;51.894;4.622;2022-12-05T11:18:56;10.75;;;6.10;;
38499;SDS011;24269;51.894;4.622;2022-12-05T11:21:58;12.57;;;6.18;;
38499;SDS011;24269;51.894;4.622;2022-12-05T11:24:29;12.23;;;5.95;;
38499;SDS011;24269;51.894;4.622;2022-12-05T11:27:17;9.82;;;5.28;;
38499;SDS011;24269;51.894;4.622;2022-12-05T11:32:26;11.68;;;5.75;;
38499;SDS011;24269;51.894;4.622;2022-12-05T11:37:47;10.80;;;5.53;;
38499;SDS011;24269;51.894;4.622;2022-12-05T11:40:15;11.52;;;5.60;;
38499;SDS011;24269;51.894;4.622;2022-12-05T11:48:52;10.15;;;5.10;;
38499;SDS011;24269;51.894;4.622;2022-12-05T12:32:39;11.90;;;5.32;;
38499;SDS011;24269;51.894;4.622;2022-12-05T12:38:04;10.30;;;4.95;;
38499;SDS011;24269;51.894;4.622;2022-12-05T12:40:47;9.95;;;4.88;;
38499;SDS011;24269;51.894;4.622;2022-12-05T12:43:33;9.07;;;4.93;;
38499;SDS011;24269;51.894;4.622;2022-12-05T12:51:28;11.45;;;5.63;;
38499;SDS011;24269;51.894;4.622;2022-12-05T12:54:44;10.43;;;4.97;;
38499;SDS011;24269;51.894;4.622;2022-12-05T12:57:18;9.75;;;4.47;;
38499;SDS011;24269;51.894;4.622;2022-12-05T13:00:16;9.57;;;5.22;;
38499;SDS011;24269;51.894;4.622;2022-12-05T13:02:46;9.02;;;4.60;;
38499;SDS011;24269;51.894;4.622;2022-12-05T13:05:32;9.57;;;4.47;;
38499;SDS011;24269;51.894;4.622;2022-12-05T13:08:13;11.40;;;4.63;;
38499;SDS011;24269;51.894;4.622;2022-12-05T13:10:46;10.45;;;4.57;;
38499;SDS011;24269;51.894;4.622;2022-12-05T13:13:15;9.15;;;4.40;;
38499;SDS011;24269;51.894;4.622;2022-12-05T13:16:06;10.27;;;4.72;;
38499;SDS011;24269;51.894;4.622;2022-12-05T13:18:33;9.57;;;4.55;;
38499;SDS011;24269;51.894;4.622;2022-12-05T13:21:01;10.48;;;4.55;;
38499;SDS011;24269;51.894;4.622;2022-12-05T13:23:30;7.88;;;4.13;;
38499;SDS011;24269;51.894;4.622;2022-12-05T13:26:00;11.20;;;4.57;;
38499;SDS011;24269;51.894;4.622;2022-12-05T13:31:08;12.52;;;4.15;;
38499;SDS011;24269;51.894;4.622;2022-12-05T13:33:42;10.05;;;5.20;;
38499;SDS011;24269;51.894;4.622;2022-12-05T13:36:09;10.35;;;4.45;;
38499;SDS011;24269;51.894;4.622;2022-12-05T13:39:03;9.65;;;4.55;;
38499;SDS011;24269;51.894;4.622;2022-12-05T13:42:22;12.40;;;4.30;;
38499;SDS011;24269;51.894;4.622;2022-12-05T13:47:34;9.43;;;4.80;;
38499;SDS011;24269;51.894;4.622;2022-12-05T13:50:06;11.65;;;5.32;;
38499;SDS011;24269;51.894;4.622;2022-12-05T13:52:40;10.02;;;4.65;;
38499;SDS011;24269;51.894;4.622;2022-12-05T13:58:00;10.40;;;5.30;;
38499;SDS011;24269;51.894;4.622;2022-12-05T14:03:02;14.95;;;5.05;;
38499;SDS011;24269;51.894;4.622;2022-12-05T14:05:44;11.88;;;5.70;;
38499;SDS011;24269;51.894;4.622;2022-12-05T14:15:48;10.00;;;4.55;;
38499;SDS011;24269;51.894;4.622;2022-12-05T14:18:16;10.80;;;4.50;;
38499;SDS011;24269;51.894;4.622;2022-12-05T14:23:54;13.70;;;5.95;;
38499;SDS011;24269;51.894;4.622;2022-12-05T14:32:31;11.18;;;4.93;;
38499;SDS011;24269;51.894;4.622;2022-12-05T14:37:32;12.95;;;6.05;;
38499;SDS011;24269;51.894;4.622;2022-12-05T14:40:42;10.85;;;4.88;;
38499;SDS011;24269;51.894;4.622;2022-12-05T14:43:02;10.65;;;4.65;;
38499;SDS011;24269;51.894;4.622;2022-12-05T14:45:32;12.00;;;4.53;;
38499;SDS011;24269;51.894;4.622;2022-12-05T14:50:54;11.77;;;5.63;;
38499;SDS011;24269;51.894;4.622;2022-12-05T14:55:53;11.45;;;5.80;;
38499;SDS011;24269;51.894;4.622;2022-12-05T14:58:34;10.15;;;4.60;;
38499;SDS011;24269;51.894;4.622;2022-12-05T15:03:57;10.05;;;5.15;;
38499;SDS011;24269;51.894;4.622;2022-12-05T15:06:27;12.70;;;5.55;;
38499;SDS011;24269;51.894;4.622;2022-12-05T15:08:54;10.63;;;5.10;;
38499;SDS011;24269;51.894;4.622;2022-12-05T15:11:23;12.43;;;6.07;;
38499;SDS011;24269;51.894;4.622;2022-12-05T15:13:56;11.30;;;5.85;;
38499;SDS011;24269;51.894;4.622;2022-12-05T15:16:44;12.25;;;5.20;;
38499;SDS011;24269;51.894;4.622;2022-12-05T15:19:17;11.23;;;4.90;;
38499;SDS011;24269;51.894;4.622;2022-12-05T15:21:50;11.18;;;4.97;;
38499;SDS011;24269;51.894;4.622;2022-12-05T15:24:20;10.65;;;5.28;;
38499;SDS011;24269;51.894;4.622;2022-12-05T15:32:03;9.05;;;4.65;;
38499;SDS011;24269;51.894;4.622;2022-12-05T15:34:55;8.35;;;3.92;;
38499;SDS011;24269;51.894;4.622;2022-12-05T15:38:27;9.93;;;4.68;;
38499;SDS011;24269;51.894;4.622;2022-12-05T15:40:24;7.85;;;3.88;;
38499;SDS011;24269;51.894;4.622;2022-12-05T15:43:00;9.15;;;3.97;;
38499;SDS011;24269;51.894;4.622;2022-12-05T15:45:42;8.20;;;3.83;;
38499;SDS011;24269;51.894;4.622;2022-12-05T15:50:43;8.18;;;3.95;;
38499;SDS011;24269;51.894;4.622;2022-12-05T15:53:17;10.55;;;4.60;;
38499;SDS011;24269;51.894;4.622;2022-12-05T15:55:58;10.90;;;4.80;;
38499;SDS011;24269;51.894;4.622;2022-12-05T16:01:03;7.53;;;4.32;;
38499;SDS011;24269;51.894;4.622;2022-12-05T16:03:49;6.32;;;3.88;;
38499;SDS011;24269;51.894;4.622;2022-12-05T16:07:02;9.82;;;4.80;;
38499;SDS011;24269;51.894;4.622;2022-12-05T16:09:13;10.50;;;4.32;;
38499;SDS011;24269;51.894;4.622;2022-12-05T16:11:54;6.57;;;3.47;;
38499;SDS011;24269;51.894;4.622;2022-12-05T16:14:29;8.13;;;4.25;;
38499;SDS011;24269;51.894;4.622;2022-12-05T16:17:01;12.70;;;4.82;;
38499;SDS011;24269;51.894;4.622;2022-12-05T16:19:28;7.88;;;3.80;;
38499;SDS011;24269;51.894;4.622;2022-12-05T16:22:05;8.15;;;3.72;;
38499;SDS011;24269;51.894;4.622;2022-12-05T16:24:41;8.40;;;3.90;;
38499;SDS011;24269;51.894;4.622;2022-12-05T16:27:24;12.60;;;5.22;;
38499;SDS011;24269;51.894;4.622;2022-12-05T16:32:44;8.82;;;4.10;;
38499;SDS011;24269;51.894;4.622;2022-12-05T16:38:04;12.40;;;4.05;;
38499;SDS011;24269;51.894;4.622;2022-12-05T16:48:36;7.10;;;3.55;;
38499;SDS011;24269;51.894;4.622;2022-12-05T16:51:21;7.63;;;3.78;;
38499;SDS011;24269;51.894;4.622;2022-12-05T16:53:52;9.13;;;3.85;;
38499;SDS011;24269;51.894;4.622;2022-12-05T16:56:25;6.75;;;3.55;;
38499;SDS011;24269;51.894;4.622;2022-12-05T16:58:54;7.88;;;3.70;;
38499;SDS011;24269;51.894;4.622;2022-12-05T17:01:23;9.10;;;4.15;;
38499;SDS011;24269;51.894;4.622;2022-12-05T17:03:51;7.97;;;3.83;;
38499;SDS011;24269;51.894;4.622;2022-12-05T17:06:17;8.68;;;4.07;;
38499;SDS011;24269;51.894;4.622;2022-12-05T17:08:45;9.38;;;4.35;;
38499;SDS011;24269;51.894;4.622;2022-12-05T17:11:30;10.88;;;4.78;;
38499;SDS011;24269;51.894;4.622;2022-12-05T17:13:59;9.20;;;4.47;;
38499;SDS011;24269;51.894;4.622;2022-12-05T17:16:25;10.23;;;4.10;;
38499;SDS011;24269;51.894;4.622;2022-12-05T17:18:51;9.20;;;4.60;;
38499;SDS011;24269;51.894;4.622;2022-12-05T17:21:20;8.45;;;3.92;;
38499;SDS011;24269;51.894;4.622;2022-12-05T17:23:48;10.43;;;4.85;;
38499;SDS011;24269;51.894;4.622;2022-12-05T17:26:16;10.75;;;4.50;;
38499;SDS011;24269;51.894;4.622;2022-12-05T17:28:43;8.55;;;4.60;;
38499;SDS011;24269;51.894;4.622;2022-12-05T17:31:11;11.07;;;5.20;;
38499;SDS011;24269;51.894;4.622;2022-12-05T17:33:40;8.85;;;4.15;;
38499;SDS011;24269;51.894;4.622;2022-12-05T17:36:06;9.48;;;4.30;;
38499;SDS011;24269;51.894;4.622;2022-12-05T17:38:32;10.32;;;5.10;;
38499;SDS011;24269;51.894;4.622;2022-12-05T17:40:57;9.02;;;4.75;;
38499;SDS011;24269;51.894;4.622;2022-12-05T17:43:23;8.45;;;4.45;;
38499;SDS011;24269;51.894;4.622;2022-12-05T17:45:49;17.95;;;8.00;;
38499;SDS011;24269;51.894;4.622;2022-12-05T17:48:14;17.48;;;8.27;;
38499;SDS011;24269;51.894;4.622;2022-12-05T17:50:41;13.50;;;6.32;;
38499;SDS011;24269;51.894;4.622;2022-12-05T17:53:13;13.43;;;6.65;;
38499;SDS011;24269;51.894;4.622;2022-12-05T17:55:43;9.07;;;4.90;;
38499;SDS011;24269;51.894;4.622;2022-12-05T17:58:11;9.25;;;5.03;;
38499;SDS011;24269;51.894;4.622;2022-12-05T18:00:39;10.88;;;6.43;;
38499;SDS011;24269;51.894;4.622;2022-12-05T18:03:05;10.82;;;5.75;;
38499;SDS011;24269;51.894;4.622;2022-12-05T18:05:30;9.07;;;4.60;;
38499;SDS011;24269;51.894;4.622;2022-12-05T18:07:56;9.52;;;4.40;;
38499;SDS011;24269;51.894;4.622;2022-12-05T18:10:22;10.73;;;5.70;;
38499;SDS011;24269;51.894;4.622;2022-12-05T18:12:49;10.13;;;5.30;;